KCXO/CXO METAR and TAF weather

Enter ICAO airport designator
Station Type Date Time Source
KCXO METAR 2018/12/10 17:53 UTC NOAA

KCXO 101753Z 35005KT 10SM CLR 12/M01 A3039 RMK AO2 SLP292 I6000 T01221006 10122 21006 58005


Station Type Date Time Source
KCXO Decoded METAR 2018/12/10 17:53 UTC NOAA

LONE STAR EXECUTIVE AIRPORT, TX, United States (KCXO) 30-21N 95-25W 75M
Dec 10, 2018 - 12:53 PM EST / 2018.12.10 1753 UTC
Wind: from the N (350 degrees) at 6 MPH (5 KT):0
Visibility: 10 mile(s):0
Sky conditions: clear
Temperature: 54.0 F (12.2 C)
Dew Point: 30.9 F (-0.6 C)
Relative Humidity: 41%
Pressure (altimeter): 30.39 in. Hg (1029 hPa)
Pressure tendency: 0.01 inches (0.5 hPa) lower than three hours ago
ob: KCXO 101753Z 35005KT 10SM CLR 12/M01 A3039 RMK AO2 SLP292 I6000 T01221006 10122 21006 58005
cycle: 18

Station Type Date Time Source
KCXO TAF 2018/12/10 18:28 UTC NOAA

TAF KCXO 101726Z 1018/1118 34006KT P6SM SKC
FM110100 VRB02KT P6SM SKC
FM111100 00000KT 6SM BR SKC
FM111500 14002KT P6SM SKC


Example: see airport list